sensor_id;sensor_type;location;lat;lon;timestamp;pressure;altitude;pressure_sealevel;temperature;humidity
4024;BME280;2026;51.002;13.668;2023-04-24T00:05:01;97765.50;;;11.16;97.54
4024;BME280;2026;51.002;13.668;2023-04-24T00:10:05;97765.50;;;11.16;96.86
4024;BME280;2026;51.002;13.668;2023-04-24T00:15:10;97770.63;;;11.06;96.30
4024;BME280;2026;51.002;13.668;2023-04-24T00:20:14;97796.31;;;10.81;97.37
4024;BME280;2026;51.002;13.668;2023-04-24T00:25:17;97794.03;;;10.90;96.30
4024;BME280;2026;51.002;13.668;2023-04-24T00:30:21;97781.06;;;10.78;97.01
4024;BME280;2026;51.002;13.668;2023-04-24T00:35:24;97772.75;;;10.86;96.58
4024;BME280;2026;51.002;13.668;2023-04-24T00:40:28;97777.22;;;10.86;97.37
4024;BME280;2026;51.002;13.668;2023-04-24T00:45:32;97776.06;;;10.99;96.66
4024;BME280;2026;51.002;13.668;2023-04-24T00:50:35;97777.22;;;10.86;97.24
4024;BME280;2026;51.002;13.668;2023-04-24T00:55:38;97774.34;;;10.87;98.31
4024;BME280;2026;51.002;13.668;2023-04-24T01:00:43;97764.00;;;10.98;98.90
4024;BME280;2026;51.002;13.668;2023-04-24T01:05:47;97756.72;;;10.83;100.00
4024;BME280;2026;51.002;13.668;2023-04-24T01:10:52;97755.25;;;10.92;99.93
4024;BME280;2026;51.002;13.668;2023-04-24T01:15:57;97760.03;;;10.95;99.47
4024;BME280;2026;51.002;13.668;2023-04-24T01:21:04;97758.63;;;10.87;99.91
4024;BME280;2026;51.002;13.668;2023-04-24T01:26:08;97766.34;;;10.99;99.09
4024;BME280;2026;51.002;13.668;2023-04-24T01:31:11;97761.19;;;10.82;99.97
4024;BME280;2026;51.002;13.668;2023-04-24T01:36:14;97766.09;;;11.01;99.88
4024;BME280;2026;51.002;13.668;2023-04-24T01:41:20;97765.53;;;10.71;100.00
4024;BME280;2026;51.002;13.668;2023-04-24T01:46:23;97759.72;;;10.92;100.00
4024;BME280;2026;51.002;13.668;2023-04-24T01:51:27;97765.38;;;11.06;99.72
4024;BME280;2026;51.002;13.668;2023-04-24T01:56:33;97755.47;;;11.13;98.98
4024;BME280;2026;51.002;13.668;2023-04-24T02:01:37;97755.00;;;11.16;99.33
4024;BME280;2026;51.002;13.668;2023-04-24T02:06:41;97757.94;;;11.25;99.62
4024;BME280;2026;51.002;13.668;2023-04-24T02:11:45;97755.25;;;10.92;100.00
4024;BME280;2026;51.002;13.668;2023-04-24T02:16:48;97754.41;;;11.09;100.00
4024;BME280;2026;51.002;13.668;2023-04-24T02:21:51;97772.75;;;11.09;100.00
4024;BME280;2026;51.002;13.668;2023-04-24T02:26:55;97762.13;;;11.21;99.65
4024;BME280;2026;51.002;13.668;2023-04-24T02:31:59;97764.47;;;11.22;99.50
4024;BME280;2026;51.002;13.668;2023-04-24T02:37:02;97766.63;;;11.25;99.28
4024;BME280;2026;51.002;13.668;2023-04-24T02:42:07;97755.84;;;11.22;99.09
4024;BME280;2026;51.002;13.668;2023-04-24T02:47:10;97762.88;;;10.94;100.00
4024;BME280;2026;51.002;13.668;2023-04-24T02:52:13;97754.41;;;11.09;100.00
4024;BME280;2026;51.002;13.668;2023-04-24T02:57:17;97744.28;;;11.23;99.55
4024;BME280;2026;51.002;13.668;2023-04-24T03:02:20;97746.41;;;11.48;97.13
4024;BME280;2026;51.002;13.668;2023-04-24T03:07:23;97738.75;;;11.79;94.71
4024;BME280;2026;51.002;13.668;2023-04-24T03:12:28;97740.34;;;11.86;93.14
4024;BME280;2026;51.002;13.668;2023-04-24T03:17:31;97742.97;;;11.80;94.56
4024;BME280;2026;51.002;13.668;2023-04-24T03:22:34;97743.84;;;11.59;96.10
4024;BME280;2026;51.002;13.668;2023-04-24T03:27:42;97745.78;;;11.74;93.61
4024;BME280;2026;51.002;13.668;2023-04-24T03:32:56;97752.00;;;11.95;91.25
4024;BME280;2026;51.002;13.668;2023-04-24T03:38:03;97749.28;;;12.22;88.71
4024;BME280;2026;51.002;13.668;2023-04-24T03:43:20;97760.88;;;12.32;88.34
4024;BME280;2026;51.002;13.668;2023-04-24T03:48:24;97756.41;;;12.27;88.12
4024;BME280;2026;51.002;13.668;2023-04-24T03:53:27;97763.22;;;12.28;86.97
4024;BME280;2026;51.002;13.668;2023-04-24T03:58:32;97773.28;;;12.42;84.84
4024;BME280;2026;51.002;13.668;2023-04-24T04:03:35;97775.38;;;12.39;85.48
4024;BME280;2026;51.002;13.668;2023-04-24T04:08:39;97777.50;;;12.43;85.17
4024;BME280;2026;51.002;13.668;2023-04-24T04:13:44;97793.81;;;12.45;84.18
4024;BME280;2026;51.002;13.668;2023-04-24T04:18:51;97779.84;;;12.44;84.03
4024;BME280;2026;51.002;13.668;2023-04-24T04:23:54;97779.31;;;12.42;84.66
4024;BME280;2026;51.002;13.668;2023-04-24T04:29:08;97784.34;;;12.44;83.85
4024;BME280;2026;51.002;13.668;2023-04-24T04:34:16;97774.91;;;12.53;83.41
4024;BME280;2026;51.002;13.668;2023-04-24T04:39:20;97775.44;;;12.50;83.05
4024;BME280;2026;51.002;13.668;2023-04-24T04:44:32;97764.63;;;12.46;82.76
4024;BME280;2026;51.002;13.668;2023-04-24T04:49:38;97770.91;;;12.40;83.33
4024;BME280;2026;51.002;13.668;2023-04-24T04:54:50;97777.75;;;12.41;83.35
4024;BME280;2026;51.002;13.668;2023-04-24T04:59:55;97781.25;;;12.57;82.63
4024;BME280;2026;51.002;13.668;2023-04-24T05:05:12;97785.25;;;12.70;81.82
4024;BME280;2026;51.002;13.668;2023-04-24T05:10:16;97796.50;;;12.60;81.31
4024;BME280;2026;51.002;13.668;2023-04-24T05:15:20;97792.34;;;12.70;80.49
4024;BME280;2026;51.002;13.668;2023-04-24T05:20:23;97787.66;;;12.82;80.18
4024;BME280;2026;51.002;13.668;2023-04-24T05:25:28;97794.53;;;12.93;79.56
4024;BME280;2026;51.002;13.668;2023-04-24T05:30:41;97802.03;;;13.23;78.72
4024;BME280;2026;51.002;13.668;2023-04-24T05:35:46;97804.13;;;13.20;77.51
4024;BME280;2026;51.002;13.668;2023-04-24T05:40:49;97793.13;;;13.44;77.99
4024;BME280;2026;51.002;13.668;2023-04-24T05:45:54;97799.41;;;13.33;77.34
4024;BME280;2026;51.002;13.668;2023-04-24T05:50:57;97801.50;;;13.26;78.04
4024;BME280;2026;51.002;13.668;2023-04-24T05:56:00;97808.91;;;13.44;76.79
4024;BME280;2026;51.002;13.668;2023-04-24T06:01:05;97807.31;;;13.33;77.98
4024;BME280;2026;51.002;13.668;2023-04-24T06:06:09;97812.06;;;13.46;77.18
4024;BME280;2026;51.002;13.668;2023-04-24T06:11:12;97813.13;;;13.56;77.10
4024;BME280;2026;51.002;13.668;2023-04-24T06:16:16;97810.25;;;13.73;76.17
4024;BME280;2026;51.002;13.668;2023-04-24T06:21:26;97810.25;;;14.14;74.94
4024;BME280;2026;51.002;13.668;2023-04-24T06:26:30;97803.63;;;14.27;74.57
4024;BME280;2026;51.002;13.668;2023-04-24T06:31:35;97813.41;;;14.27;73.25
4024;BME280;2026;51.002;13.668;2023-04-24T06:36:39;97816.75;;;14.64;73.60
4024;BME280;2026;51.002;13.668;2023-04-24T06:41:42;97814.09;;;14.74;72.06
4024;BME280;2026;51.002;13.668;2023-04-24T06:46:54;97817.97;;;14.92;71.53
4024;BME280;2026;51.002;13.668;2023-04-24T06:51:57;97817.78;;;14.73;72.68
4024;BME280;2026;51.002;13.668;2023-04-24T06:57:00;97822.94;;;15.04;71.30
4024;BME280;2026;51.002;13.668;2023-04-24T07:02:05;97820.16;;;15.35;70.56
4024;BME280;2026;51.002;13.668;2023-04-24T07:07:08;97829.88;;;15.45;68.56
4024;BME280;2026;51.002;13.668;2023-04-24T07:12:14;97825.81;;;15.58;69.65
4024;BME280;2026;51.002;13.668;2023-04-24T07:17:19;97838.31;;;14.87;69.50
4024;BME280;2026;51.002;13.668;2023-04-24T07:22:22;97836.19;;;14.94;70.19
4024;BME280;2026;51.002;13.668;2023-04-24T07:27:26;97840.16;;;14.86;68.46
4024;BME280;2026;51.002;13.668;2023-04-24T07:32:30;97839.09;;;14.92;70.72
4024;BME280;2026;51.002;13.668;2023-04-24T07:37:33;97844.66;;;15.46;70.41
4024;BME280;2026;51.002;13.668;2023-04-24T07:42:36;97844.97;;;15.79;67.47
4024;BME280;2026;51.002;13.668;2023-04-24T07:47:41;97848.44;;;16.10;66.95
4024;BME280;2026;51.002;13.668;2023-04-24T07:52:46;97842.28;;;16.19;65.24
4024;BME280;2026;51.002;13.668;2023-04-24T07:57:49;97854.53;;;16.10;66.01
4024;BME280;2026;51.002;13.668;2023-04-24T08:02:53;97844.59;;;16.80;62.95
4024;BME280;2026;51.002;13.668;2023-04-24T08:07:57;97844.78;;;17.33;63.30
4024;BME280;2026;51.002;13.668;2023-04-24T08:13:00;97848.81;;;16.27;62.64
4024;BME280;2026;51.002;13.668;2023-04-24T08:18:04;97848.84;;;15.92;64.70
4024;BME280;2026;51.002;13.668;2023-04-24T08:23:07;97852.13;;;16.43;63.02
4024;BME280;2026;51.002;13.668;2023-04-24T08:28:10;97855.16;;;16.31;61.69
4024;BME280;2026;51.002;13.668;2023-04-24T08:33:18;97856.78;;;15.92;62.39
4024;BME280;2026;51.002;13.668;2023-04-24T08:38:22;97857.94;;;15.81;62.40
4024;BME280;2026;51.002;13.668;2023-04-24T08:43:27;97862.59;;;15.94;62.57
4024;BME280;2026;51.002;13.668;2023-04-24T08:48:31;97859.22;;;15.84;61.61
4024;BME280;2026;51.002;13.668;2023-04-24T08:53:35;97864.38;;;16.04;61.88
4024;BME280;2026;51.002;13.668;2023-04-24T08:58:38;97865.25;;;16.54;61.15
4024;BME280;2026;51.002;13.668;2023-04-24T09:03:43;97869.13;;;17.35;56.42
4024;BME280;2026;51.002;13.668;2023-04-24T09:08:48;97860.97;;;17.50;55.80
4024;BME280;2026;51.002;13.668;2023-04-24T09:13:53;97866.47;;;16.91;55.83
4024;BME280;2026;51.002;13.668;2023-04-24T09:18:57;97866.31;;;16.53;57.37
4024;BME280;2026;51.002;13.668;2023-04-24T09:24:02;97870.69;;;16.38;57.23
4024;BME280;2026;51.002;13.668;2023-04-24T09:29:05;97863.44;;;16.19;58.30
4024;BME280;2026;51.002;13.668;2023-04-24T09:34:09;97872.00;;;16.95;57.57
4024;BME280;2026;51.002;13.668;2023-04-24T09:39:13;97864.38;;;17.31;56.34
4024;BME280;2026;51.002;13.668;2023-04-24T09:44:18;97872.72;;;17.44;54.15
4024;BME280;2026;51.002;13.668;2023-04-24T09:49:25;97860.34;;;17.58;53.91
4024;BME280;2026;51.002;13.668;2023-04-24T09:54:28;97872.00;;;16.95;54.66
4024;BME280;2026;51.002;13.668;2023-04-24T09:59:31;97868.41;;;16.80;55.93
4024;BME280;2026;51.002;13.668;2023-04-24T10:04:38;97863.84;;;16.86;55.92
4024;BME280;2026;51.002;13.668;2023-04-24T10:09:42;97857.06;;;17.23;55.22
4024;BME280;2026;51.002;13.668;2023-04-24T10:14:45;97853.09;;;17.45;54.19
4024;BME280;2026;51.002;13.668;2023-04-24T10:19:51;97855.56;;;16.68;55.46
4024;BME280;2026;51.002;13.668;2023-04-24T10:24:54;97853.69;;;17.42;54.31
4024;BME280;2026;51.002;13.668;2023-04-24T10:30:00;97849.81;;;17.10;55.46
4024;BME280;2026;51.002;13.668;2023-04-24T10:35:06;97845.56;;;17.52;55.55
4024;BME280;2026;51.002;13.668;2023-04-24T10:40:10;97836.69;;;17.43;54.57
4024;BME280;2026;51.002;13.668;2023-04-24T10:45:18;97851.47;;;17.06;54.71
4024;BME280;2026;51.002;13.668;2023-04-24T10:50:26;97849.00;;;16.36;56.79
4024;BME280;2026;51.002;13.668;2023-04-24T10:55:44;97857.72;;;16.07;58.32
4024;BME280;2026;51.002;13.668;2023-04-24T11:00:56;97859.41;;;16.57;56.91
4024;BME280;2026;51.002;13.668;2023-04-24T11:06:02;97871.59;;;16.53;59.12
4024;BME280;2026;51.002;13.668;2023-04-24T11:11:10;97866.84;;;16.25;58.69
4024;BME280;2026;51.002;13.668;2023-04-24T11:16:20;97874.47;;;15.97;61.38
4024;BME280;2026;51.002;13.668;2023-04-24T11:21:31;97880.69;;;15.72;62.33
4024;BME280;2026;51.002;13.668;2023-04-24T11:26:37;97881.69;;;15.86;60.15
4024;BME280;2026;51.002;13.668;2023-04-24T11:31:44;97874.81;;;16.20;59.53
4024;BME280;2026;51.002;13.668;2023-04-24T11:36:52;97864.47;;;16.77;58.92
4024;BME280;2026;51.002;13.668;2023-04-24T11:42:02;97865.91;;;16.40;59.48
4024;BME280;2026;51.002;13.668;2023-04-24T11:47:05;97863.91;;;16.81;59.92
4024;BME280;2026;51.002;13.668;2023-04-24T11:52:10;97858.09;;;17.27;57.38
4024;BME280;2026;51.002;13.668;2023-04-24T11:57:13;97873.34;;;16.92;57.38
4024;BME280;2026;51.002;13.668;2023-04-24T12:02:23;97861.94;;;17.16;52.41
4024;BME280;2026;51.002;13.668;2023-04-24T12:07:28;97867.78;;;17.37;52.46
4024;BME280;2026;51.002;13.668;2023-04-24T12:12:30;97870.84;;;16.76;49.65
4024;BME280;2026;51.002;13.668;2023-04-24T12:17:34;97876.50;;;16.65;50.47
4024;BME280;2026;51.002;13.668;2023-04-24T12:22:48;97869.75;;;17.84;48.17
4024;BME280;2026;51.002;13.668;2023-04-24T12:27:53;97854.84;;;17.88;46.43
4024;BME280;2026;51.002;13.668;2023-04-24T12:32:57;97861.09;;;17.78;46.87
4024;BME280;2026;51.002;13.668;2023-04-24T12:38:07;97883.03;;;17.45;47.17
4024;BME280;2026;51.002;13.668;2023-04-24T12:43:14;97875.31;;;17.49;47.52
4024;BME280;2026;51.002;13.668;2023-04-24T12:48:18;97874.22;;;17.50;47.62
4024;BME280;2026;51.002;13.668;2023-04-24T12:53:23;97895.47;;;17.26;45.57
4024;BME280;2026;51.002;13.668;2023-04-24T12:58:28;97880.22;;;17.75;45.02
4024;BME280;2026;51.002;13.668;2023-04-24T13:03:31;97874.53;;;18.34;45.74
4024;BME280;2026;51.002;13.668;2023-04-24T13:08:35;97880.94;;;18.33;45.59
4024;BME280;2026;51.002;13.668;2023-04-24T13:13:38;97850.31;;;18.55;43.25
4024;BME280;2026;51.002;13.668;2023-04-24T13:18:42;97875.41;;;18.16;41.62
4024;BME280;2026;51.002;13.668;2023-04-24T13:23:46;97872.34;;;17.70;40.64
4024;BME280;2026;51.002;13.668;2023-04-24T13:28:49;97860.22;;;18.02;42.17
4024;BME280;2026;51.002;13.668;2023-04-24T13:33:52;97873.59;;;17.58;43.68
4024;BME280;2026;51.002;13.668;2023-04-24T13:38:57;97876.50;;;17.38;42.10
4024;BME280;2026;51.002;13.668;2023-04-24T13:44:00;97881.56;;;17.15;43.27
4024;BME280;2026;51.002;13.668;2023-04-24T13:49:04;97873.28;;;17.41;42.97
4024;BME280;2026;51.002;13.668;2023-04-24T13:54:09;97875.13;;;17.21;42.86
4024;BME280;2026;51.002;13.668;2023-04-24T13:59:12;97880.66;;;17.00;42.88
4024;BME280;2026;51.002;13.668;2023-04-24T14:04:15;97862.75;;;17.55;42.72
4024;BME280;2026;51.002;13.668;2023-04-24T14:09:20;97865.63;;;17.58;41.91
4024;BME280;2026;51.002;13.668;2023-04-24T14:14:23;97858.00;;;17.90;41.56
4024;BME280;2026;51.002;13.668;2023-04-24T14:19:26;97852.66;;;17.38;41.12
4024;BME280;2026;51.002;13.668;2023-04-24T14:24:30;97859.03;;;16.93;43.82
4024;BME280;2026;51.002;13.668;2023-04-24T14:29:33;97851.72;;;17.67;41.92
4024;BME280;2026;51.002;13.668;2023-04-24T14:34:36;97855.47;;;17.99;41.41
4024;BME280;2026;51.002;13.668;2023-04-24T14:39:40;97864.59;;;17.93;39.53
4024;BME280;2026;51.002;13.668;2023-04-24T14:44:48;97854.91;;;18.02;42.13
4024;BME280;2026;51.002;13.668;2023-04-24T14:49:51;97863.19;;;17.62;40.39
4024;BME280;2026;51.002;13.668;2023-04-24T14:54:55;97861.41;;;17.57;42.29
4024;BME280;2026;51.002;13.668;2023-04-24T14:59:58;97867.91;;;17.46;42.16
4024;BME280;2026;51.002;13.668;2023-04-24T15:05:02;97872.25;;;16.93;40.96
4024;BME280;2026;51.002;13.668;2023-04-24T15:10:08;97875.03;;;17.07;42.36
4024;BME280;2026;51.002;13.668;2023-04-24T15:15:11;97878.16;;;16.85;42.67
4024;BME280;2026;51.002;13.668;2023-04-24T15:20:14;97878.84;;;16.71;40.99
4024;BME280;2026;51.002;13.668;2023-04-24T15:25:18;97886.38;;;16.59;42.33
4024;BME280;2026;51.002;13.668;2023-04-24T15:30:21;97892.06;;;17.01;41.92
4024;BME280;2026;51.002;13.668;2023-04-24T15:35:24;97900.97;;;16.81;44.31
4024;BME280;2026;51.002;13.668;2023-04-24T15:40:29;97893.44;;;16.93;43.58
4024;BME280;2026;51.002;13.668;2023-04-24T15:45:32;97897.00;;;16.54;43.65
4024;BME280;2026;51.002;13.668;2023-04-24T15:50:35;97906.84;;;16.18;44.27
4024;BME280;2026;51.002;13.668;2023-04-24T15:55:39;97917.91;;;16.20;46.20
4024;BME280;2026;51.002;13.668;2023-04-24T16:00:43;97911.63;;;16.11;45.93
4024;BME280;2026;51.002;13.668;2023-04-24T16:05:45;97926.47;;;16.07;46.58
4024;BME280;2026;51.002;13.668;2023-04-24T16:10:50;97920.78;;;15.89;47.75
4024;BME280;2026;51.002;13.668;2023-04-24T16:15:53;97926.19;;;16.08;47.23
4024;BME280;2026;51.002;13.668;2023-04-24T16:20:57;97923.81;;;16.07;48.36
4024;BME280;2026;51.002;13.668;2023-04-24T16:26:01;97929.78;;;15.83;49.20
4024;BME280;2026;51.002;13.668;2023-04-24T16:31:04;97928.03;;;15.73;49.81
4024;BME280;2026;51.002;13.668;2023-04-24T16:36:07;97947.41;;;15.48;49.29
4024;BME280;2026;51.002;13.668;2023-04-24T16:41:12;97962.53;;;15.21;50.34
4024;BME280;2026;51.002;13.668;2023-04-24T16:46:15;97963.34;;;15.11;51.46
4024;BME280;2026;51.002;13.668;2023-04-24T16:51:18;97966.59;;;14.62;52.23
4024;BME280;2026;51.002;13.668;2023-04-24T16:56:23;97973.97;;;14.75;52.49
4024;BME280;2026;51.002;13.668;2023-04-24T17:01:26;97970.00;;;14.98;52.25
4024;BME280;2026;51.002;13.668;2023-04-24T17:06:29;97967.63;;;14.81;53.68
4024;BME280;2026;51.002;13.668;2023-04-24T17:11:34;97995.09;;;14.70;53.90
4024;BME280;2026;51.002;13.668;2023-04-24T17:16:37;97985.06;;;14.46;54.09
4024;BME280;2026;51.002;13.668;2023-04-24T17:21:41;97980.00;;;14.19;55.16
4024;BME280;2026;51.002;13.668;2023-04-24T17:26:45;97997.69;;;14.28;54.88
4024;BME280;2026;51.002;13.668;2023-04-24T17:31:48;98011.59;;;14.08;56.35
4024;BME280;2026;51.002;13.668;2023-04-24T17:36:52;98024.78;;;14.08;57.07
4024;BME280;2026;51.002;13.668;2023-04-24T17:41:57;98028.94;;;13.88;57.20
4024;BME280;2026;51.002;13.668;2023-04-24T17:47:01;98036.81;;;13.73;57.64
4024;BME280;2026;51.002;13.668;2023-04-24T17:52:04;98038.66;;;13.78;58.48
4024;BME280;2026;51.002;13.668;2023-04-24T17:57:09;98040.97;;;13.69;58.82
4024;BME280;2026;51.002;13.668;2023-04-24T18:02:12;98062.47;;;13.45;59.27
4024;BME280;2026;51.002;13.668;2023-04-24T18:07:15;98057.56;;;13.21;58.89
4024;BME280;2026;51.002;13.668;2023-04-24T18:12:19;98067.81;;;13.12;59.63
4024;BME280;2026;51.002;13.668;2023-04-24T18:17:22;98083.59;;;13.12;59.70
4024;BME280;2026;51.002;13.668;2023-04-24T18:22:26;98091.28;;;12.91;60.60
4024;BME280;2026;51.002;13.668;2023-04-24T18:27:30;98102.13;;;12.40;61.33
4024;BME280;2026;51.002;13.668;2023-04-24T18:32:34;98098.16;;;12.37;61.04
4024;BME280;2026;51.002;13.668;2023-04-24T18:37:37;98104.44;;;12.36;60.80
4024;BME280;2026;51.002;13.668;2023-04-24T18:42:43;98112.75;;;12.28;60.74
4024;BME280;2026;51.002;13.668;2023-04-24T18:47:46;98127.72;;;12.50;60.55
4024;BME280;2026;51.002;13.668;2023-04-24T18:52:49;98128.31;;;12.30;61.07
4024;BME280;2026;51.002;13.668;2023-04-24T18:57:54;98128.34;;;12.13;61.00
4024;BME280;2026;51.002;13.668;2023-04-24T19:02:56;98131.88;;;12.01;61.45
4024;BME280;2026;51.002;13.668;2023-04-24T19:08:00;98143.44;;;12.00;60.86
4024;BME280;2026;51.002;13.668;2023-04-24T19:13:04;98148.41;;;12.19;59.92
4024;BME280;2026;51.002;13.668;2023-04-24T19:18:07;98158.00;;;12.30;59.81
4024;BME280;2026;51.002;13.668;2023-04-24T19:23:10;98166.53;;;12.20;60.43
4024;BME280;2026;51.002;13.668;2023-04-24T19:28:15;98168.16;;;12.21;60.59
4024;BME280;2026;51.002;13.668;2023-04-24T19:33:18;98165.81;;;12.03;60.80
4024;BME280;2026;51.002;13.668;2023-04-24T19:38:21;98170.75;;;11.99;61.55
4024;BME280;2026;51.002;13.668;2023-04-24T19:43:25;98169.19;;;11.81;62.07
4024;BME280;2026;51.002;13.668;2023-04-24T19:48:28;98171.06;;;11.86;63.56
4024;BME280;2026;51.002;13.668;2023-04-24T19:53:33;98164.97;;;11.80;64.28
4024;BME280;2026;51.002;13.668;2023-04-24T19:58:37;98164.09;;;11.74;64.80
4024;BME280;2026;51.002;13.668;2023-04-24T20:03:40;98177.09;;;11.64;65.90
4024;BME280;2026;51.002;13.668;2023-04-24T20:08:43;98166.81;;;11.62;65.98
4024;BME280;2026;51.002;13.668;2023-04-24T20:13:48;98185.94;;;11.58;66.72
4024;BME280;2026;51.002;13.668;2023-04-24T20:18:51;98185.94;;;11.58;69.43
4024;BME280;2026;51.002;13.668;2023-04-24T20:23:53;98175.88;;;11.72;70.35
4024;BME280;2026;51.002;13.668;2023-04-24T20:28:58;98184.97;;;11.64;68.04
4024;BME280;2026;51.002;13.668;2023-04-24T20:34:01;98187.38;;;11.48;68.77
4024;BME280;2026;51.002;13.668;2023-04-24T20:39:04;98185.56;;;11.37;68.11
4024;BME280;2026;51.002;13.668;2023-04-24T20:44:10;98196.47;;;10.99;68.95
4024;BME280;2026;51.002;13.668;2023-04-24T20:49:13;98185.44;;;10.97;66.72
4024;BME280;2026;51.002;13.668;2023-04-24T20:54:16;98189.38;;;10.83;66.06
4024;BME280;2026;51.002;13.668;2023-04-24T20:59:20;98195.13;;;10.68;66.42
4024;BME280;2026;51.002;13.668;2023-04-24T21:04:23;98210.72;;;10.74;65.51
4024;BME280;2026;51.002;13.668;2023-04-24T21:09:26;98198.25;;;10.53;66.70
4024;BME280;2026;51.002;13.668;2023-04-24T21:14:31;98203.63;;;10.46;67.51
4024;BME280;2026;51.002;13.668;2023-04-24T21:19:34;98202.59;;;10.47;67.91
4024;BME280;2026;51.002;13.668;2023-04-24T21:24:37;98195.91;;;10.68;67.18
4024;BME280;2026;51.002;13.668;2023-04-24T21:29:41;98190.69;;;10.68;67.45
4024;BME280;2026;51.002;13.668;2023-04-24T21:34:44;98187.06;;;10.69;67.70
4024;BME280;2026;51.002;13.668;2023-04-24T21:39:47;98196.28;;;10.60;68.33
4024;BME280;2026;51.002;13.668;2023-04-24T21:44:51;98185.69;;;10.67;67.73
4024;BME280;2026;51.002;13.668;2023-04-24T21:49:54;98184.22;;;10.59;68.93
4024;BME280;2026;51.002;13.668;2023-04-24T21:54:57;98184.22;;;10.59;69.12
4024;BME280;2026;51.002;13.668;2023-04-24T22:00:01;98173.16;;;10.57;69.08
4024;BME280;2026;51.002;13.668;2023-04-24T22:05:07;98177.94;;;10.60;69.13
4024;BME280;2026;51.002;13.668;2023-04-24T22:10:16;98170.00;;;10.55;69.23
4024;BME280;2026;51.002;13.668;2023-04-24T22:15:20;98173.44;;;10.43;69.65
4024;BME280;2026;51.002;13.668;2023-04-24T22:20:23;98169.94;;;10.26;69.77
4024;BME280;2026;51.002;13.668;2023-04-24T22:25:26;98166.66;;;10.18;69.53
4024;BME280;2026;51.002;13.668;2023-04-24T22:30:30;98170.09;;;10.07;70.47
4024;BME280;2026;51.002;13.668;2023-04-24T22:35:33;98170.78;;;10.14;69.96
4024;BME280;2026;51.002;13.668;2023-04-24T22:40:38;98170.88;;;10.08;70.61
4024;BME280;2026;51.002;13.668;2023-04-24T22:45:42;98163.50;;;9.93;71.13
4024;BME280;2026;51.002;13.668;2023-04-24T22:50:45;98165.53;;;9.90;71.36
4024;BME280;2026;51.002;13.668;2023-04-24T22:55:48;98171.47;;;9.86;71.89
4024;BME280;2026;51.002;13.668;2023-04-24T23:00:52;98166.91;;;9.69;73.17
4024;BME280;2026;51.002;13.668;2023-04-24T23:05:55;98171.13;;;9.70;73.32
4024;BME280;2026;51.002;13.668;2023-04-24T23:10:58;98179.44;;;9.55;74.97
4024;BME280;2026;51.002;13.668;2023-04-24T23:16:02;98173.41;;;9.67;75.62
4024;BME280;2026;51.002;13.668;2023-04-24T23:21:06;98178.28;;;9.51;77.21
4024;BME280;2026;51.002;13.668;2023-04-24T23:26:09;98181.16;;;9.19;79.45
4024;BME280;2026;51.002;13.668;2023-04-24T23:31:13;98176.09;;;9.48;78.98
4024;BME280;2026;51.002;13.668;2023-04-24T23:36:16;98166.91;;;9.57;79.08
4024;BME280;2026;51.002;13.668;2023-04-24T23:41:19;98162.38;;;9.53;79.75
4024;BME280;2026;51.002;13.668;2023-04-24T23:46:23;98167.81;;;9.51;80.12
4024;BME280;2026;51.002;13.668;2023-04-24T23:51:27;98161.69;;;9.69;79.03
4024;BME280;2026;51.002;13.668;2023-04-24T23:56:30;98153.63;;;9.59;79.36
